sensor_id;sensor_type;location;lat;lon;timestamp;temperature;humidity
21259;DHT22;10787;53.364;-1.480;2023-04-15T00:00:19;6.70;4.10
21259;DHT22;10787;53.364;-1.480;2023-04-15T00:03:03;6.70;1.00
21259;DHT22;10787;53.364;-1.480;2023-04-15T00:05:51;6.70;1.00
21259;DHT22;10787;53.364;-1.480;2023-04-15T00:08:35;6.70;11.10
21259;DHT22;10787;53.364;-1.480;2023-04-15T00:11:20;6.70;3.80
21259;DHT22;10787;53.364;-1.480;2023-04-15T00:14:04;6.70;28.40
21259;DHT22;10787;53.364;-1.480;2023-04-15T00:16:49;6.80;35.50
21259;DHT22;10787;53.364;-1.480;2023-04-15T00:19:38;6.80;24.50
21259;DHT22;10787;53.364;-1.480;2023-04-15T00:22:23;6.80;39.90
21259;DHT22;10787;53.364;-1.480;2023-04-15T00:25:08;6.70;26.80
21259;DHT22;10787;53.364;-1.480;2023-04-15T00:27:52;6.70;52.20
21259;DHT22;10787;53.364;-1.480;2023-04-15T00:30:37;6.80;39.00
21259;DHT22;10787;53.364;-1.480;2023-04-15T00:33:22;6.70;64.30
21259;DHT22;10787;53.364;-1.480;2023-04-15T00:36:07;6.70;57.00
21259;DHT22;10787;53.364;-1.480;2023-04-15T00:38:51;6.70;70.70
21259;DHT22;10787;53.364;-1.480;2023-04-15T00:41:36;6.70;76.90
21259;DHT22;10787;53.364;-1.480;2023-04-15T00:44:22;6.70;84.80
21259;DHT22;10787;53.364;-1.480;2023-04-15T00:47:07;6.70;96.30
21259;DHT22;10787;53.364;-1.480;2023-04-15T00:49:51;6.70;98.50
21259;DHT22;10787;53.364;-1.480;2023-04-15T00:52:36;6.70;71.40
21259;DHT22;10787;53.364;-1.480;2023-04-15T00:55:20;6.70;21.40
21259;DHT22;10787;53.364;-1.480;2023-04-15T00:58:05;6.70;26.70
21259;DHT22;10787;53.364;-1.480;2023-04-15T01:00:50;6.70;17.90
21259;DHT22;10787;53.364;-1.480;2023-04-15T01:03:38;6.60;19.10
21259;DHT22;10787;53.364;-1.480;2023-04-15T01:06:23;6.70;24.30
21259;DHT22;10787;53.364;-1.480;2023-04-15T01:09:07;6.70;32.20
21259;DHT22;10787;53.364;-1.480;2023-04-15T01:11:51;6.60;30.30
21259;DHT22;10787;53.364;-1.480;2023-04-15T01:14:37;6.60;15.20
21259;DHT22;10787;53.364;-1.480;2023-04-15T01:17:22;6.60;17.30
21259;DHT22;10787;53.364;-1.480;2023-04-15T01:20:07;6.60;32.00
21259;DHT22;10787;53.364;-1.480;2023-04-15T01:22:54;6.60;21.70
21259;DHT22;10787;53.364;-1.480;2023-04-15T01:25:40;6.60;14.50
21259;DHT22;10787;53.364;-1.480;2023-04-15T01:28:25;6.60;28.90
21259;DHT22;10787;53.364;-1.480;2023-04-15T01:31:12;6.60;20.80
21259;DHT22;10787;53.364;-1.480;2023-04-15T01:33:57;6.60;19.80
21259;DHT22;10787;53.364;-1.480;2023-04-15T01:36:41;6.60;17.00
21259;DHT22;10787;53.364;-1.480;2023-04-15T01:39:26;6.60;19.00
21259;DHT22;10787;53.364;-1.480;2023-04-15T01:42:10;6.60;34.00
21259;DHT22;10787;53.364;-1.480;2023-04-15T01:44:54;6.60;20.80
21259;DHT22;10787;53.364;-1.480;2023-04-15T01:47:39;6.60;40.40
21259;DHT22;10787;53.364;-1.480;2023-04-15T01:50:23;6.60;24.90
21259;DHT22;10787;53.364;-1.480;2023-04-15T01:53:08;6.60;37.10
21259;DHT22;10787;53.364;-1.480;2023-04-15T01:55:53;6.60;50.20
21259;DHT22;10787;53.364;-1.480;2023-04-15T01:58:37;6.60;30.10
21259;DHT22;10787;53.364;-1.480;2023-04-15T02:01:23;6.60;50.00
21259;DHT22;10787;53.364;-1.480;2023-04-15T02:04:07;6.60;39.90
21259;DHT22;10787;53.364;-1.480;2023-04-15T02:06:59;6.60;44.70
21259;DHT22;10787;53.364;-1.480;2023-04-15T02:09:43;6.70;60.80
21259;DHT22;10787;53.364;-1.480;2023-04-15T02:12:28;6.70;33.20
21259;DHT22;10787;53.364;-1.480;2023-04-15T02:15:13;6.70;20.10
21259;DHT22;10787;53.364;-1.480;2023-04-15T02:17:58;6.60;31.70
21259;DHT22;10787;53.364;-1.480;2023-04-15T02:20:44;6.70;65.70
21259;DHT22;10787;53.364;-1.480;2023-04-15T02:23:28;6.60;8.00
21259;DHT22;10787;53.364;-1.480;2023-04-15T02:26:12;6.60;2.90
21259;DHT22;10787;53.364;-1.480;2023-04-15T02:28:57;6.60;1.00
21259;DHT22;10787;53.364;-1.480;2023-04-15T02:31:41;6.60;17.40
21259;DHT22;10787;53.364;-1.480;2023-04-15T02:34:26;6.50;29.60
21259;DHT22;10787;53.364;-1.480;2023-04-15T02:37:13;6.50;22.50
21259;DHT22;10787;53.364;-1.480;2023-04-15T02:39:57;6.50;40.80
21259;DHT22;10787;53.364;-1.480;2023-04-15T02:42:42;6.50;41.10
21259;DHT22;10787;53.364;-1.480;2023-04-15T02:45:27;6.50;36.60
21259;DHT22;10787;53.364;-1.480;2023-04-15T02:48:12;6.50;25.70
21259;DHT22;10787;53.364;-1.480;2023-04-15T02:51:16;6.50;39.60
21259;DHT22;10787;53.364;-1.480;2023-04-15T02:54:02;6.50;36.50
21259;DHT22;10787;53.364;-1.480;2023-04-15T02:56:47;6.50;21.20
21259;DHT22;10787;53.364;-1.480;2023-04-15T02:59:31;6.40;3.70
21259;DHT22;10787;53.364;-1.480;2023-04-15T03:02:15;6.40;9.80
21259;DHT22;10787;53.364;-1.480;2023-04-15T03:05:00;6.40;14.30
21259;DHT22;10787;53.364;-1.480;2023-04-15T03:07:44;6.40;14.20
21259;DHT22;10787;53.364;-1.480;2023-04-15T03:10:28;6.40;1.00
21259;DHT22;10787;53.364;-1.480;2023-04-15T03:13:13;6.40;1.00
21259;DHT22;10787;53.364;-1.480;2023-04-15T03:15:56;6.40;9.10
21259;DHT22;10787;53.364;-1.480;2023-04-15T03:18:41;6.40;1.00
21259;DHT22;10787;53.364;-1.480;2023-04-15T03:21:25;6.40;1.00
21259;DHT22;10787;53.364;-1.480;2023-04-15T03:24:11;6.40;4.50
21259;DHT22;10787;53.364;-1.480;2023-04-15T03:26:56;6.40;2.30
21259;DHT22;10787;53.364;-1.480;2023-04-15T03:29:40;6.40;1.00
21259;DHT22;10787;53.364;-1.480;2023-04-15T03:32:25;6.40;1.00
21259;DHT22;10787;53.364;-1.480;2023-04-15T03:35:10;6.40;1.00
21259;DHT22;10787;53.364;-1.480;2023-04-15T03:37:54;6.40;1.00
21259;DHT22;10787;53.364;-1.480;2023-04-15T03:40:40;6.40;1.00
21259;DHT22;10787;53.364;-1.480;2023-04-15T03:43:24;6.40;1.00
21259;DHT22;10787;53.364;-1.480;2023-04-15T03:46:09;6.40;1.00
21259;DHT22;10787;53.364;-1.480;2023-04-15T03:48:54;6.40;1.00
21259;DHT22;10787;53.364;-1.480;2023-04-15T03:51:38;6.40;1.00
21259;DHT22;10787;53.364;-1.480;2023-04-15T03:54:22;6.40;1.00
21259;DHT22;10787;53.364;-1.480;2023-04-15T03:57:06;6.40;1.00
21259;DHT22;10787;53.364;-1.480;2023-04-15T03:59:50;6.30;1.00
21259;DHT22;10787;53.364;-1.480;2023-04-15T04:02:34;6.30;1.00
21259;DHT22;10787;53.364;-1.480;2023-04-15T04:05:19;6.30;1.00
21259;DHT22;10787;53.364;-1.480;2023-04-15T04:08:04;6.30;1.00
21259;DHT22;10787;53.364;-1.480;2023-04-15T04:10:48;6.20;1.00
21259;DHT22;10787;53.364;-1.480;2023-04-15T04:13:32;6.20;1.00
21259;DHT22;10787;53.364;-1.480;2023-04-15T04:16:16;6.20;1.00
21259;DHT22;10787;53.364;-1.480;2023-04-15T04:19:00;6.20;1.00
21259;DHT22;10787;53.364;-1.480;2023-04-15T04:21:44;6.20;1.00
21259;DHT22;10787;53.364;-1.480;2023-04-15T04:24:29;6.20;1.00
21259;DHT22;10787;53.364;-1.480;2023-04-15T04:27:14;6.20;1.00
21259;DHT22;10787;53.364;-1.480;2023-04-15T04:29:59;6.20;1.00
21259;DHT22;10787;53.364;-1.480;2023-04-15T04:32:43;6.20;1.00
21259;DHT22;10787;53.364;-1.480;2023-04-15T04:35:27;6.20;1.00
21259;DHT22;10787;53.364;-1.480;2023-04-15T04:38:11;6.20;1.00
21259;DHT22;10787;53.364;-1.480;2023-04-15T04:40:56;6.30;1.00
21259;DHT22;10787;53.364;-1.480;2023-04-15T04:43:40;6.30;1.00
21259;DHT22;10787;53.364;-1.480;2023-04-15T04:46:24;6.30;1.00
21259;DHT22;10787;53.364;-1.480;2023-04-15T04:49:08;6.30;1.00
21259;DHT22;10787;53.364;-1.480;2023-04-15T04:51:53;6.30;1.00
21259;DHT22;10787;53.364;-1.480;2023-04-15T04:54:37;6.30;1.00
21259;DHT22;10787;53.364;-1.480;2023-04-15T04:57:22;6.30;1.00
21259;DHT22;10787;53.364;-1.480;2023-04-15T05:00:06;6.30;1.00
21259;DHT22;10787;53.364;-1.480;2023-04-15T05:02:51;6.30;1.00
21259;DHT22;10787;53.364;-1.480;2023-04-15T05:05:36;6.30;1.00
21259;DHT22;10787;53.364;-1.480;2023-04-15T05:08:22;6.30;1.00
21259;DHT22;10787;53.364;-1.480;2023-04-15T05:11:07;6.20;1.00
21259;DHT22;10787;53.364;-1.480;2023-04-15T05:13:52;6.20;1.00
21259;DHT22;10787;53.364;-1.480;2023-04-15T05:16:36;6.20;1.00
21259;DHT22;10787;53.364;-1.480;2023-04-15T05:19:21;6.10;1.00
21259;DHT22;10787;53.364;-1.480;2023-04-15T05:22:06;6.10;1.00
21259;DHT22;10787;53.364;-1.480;2023-04-15T05:24:51;6.00;1.00
21259;DHT22;10787;53.364;-1.480;2023-04-15T05:27:35;6.00;1.00
21259;DHT22;10787;53.364;-1.480;2023-04-15T05:30:19;6.00;1.00
21259;DHT22;10787;53.364;-1.480;2023-04-15T05:33:05;6.00;1.00
21259;DHT22;10787;53.364;-1.480;2023-04-15T05:35:49;6.00;1.00
21259;DHT22;10787;53.364;-1.480;2023-04-15T05:38:34;6.00;1.00
21259;DHT22;10787;53.364;-1.480;2023-04-15T05:41:18;6.00;1.00
21259;DHT22;10787;53.364;-1.480;2023-04-15T05:44:03;6.10;1.00
21259;DHT22;10787;53.364;-1.480;2023-04-15T05:46:47;6.10;1.00
21259;DHT22;10787;53.364;-1.480;2023-04-15T05:49:31;6.20;1.00
21259;DHT22;10787;53.364;-1.480;2023-04-15T05:52:16;6.20;1.00
21259;DHT22;10787;53.364;-1.480;2023-04-15T05:55:01;6.30;1.00
21259;DHT22;10787;53.364;-1.480;2023-04-15T05:57:45;6.30;1.00
21259;DHT22;10787;53.364;-1.480;2023-04-15T06:00:29;6.40;1.00
21259;DHT22;10787;53.364;-1.480;2023-04-15T06:03:17;6.50;1.00
21259;DHT22;10787;53.364;-1.480;2023-04-15T06:06:01;6.50;1.00
21259;DHT22;10787;53.364;-1.480;2023-04-15T06:08:45;6.50;1.00
21259;DHT22;10787;53.364;-1.480;2023-04-15T06:11:30;6.50;1.00
21259;DHT22;10787;53.364;-1.480;2023-04-15T06:14:14;6.50;1.00
21259;DHT22;10787;53.364;-1.480;2023-04-15T06:16:59;6.50;1.00
21259;DHT22;10787;53.364;-1.480;2023-04-15T06:19:43;6.60;1.00
21259;DHT22;10787;53.364;-1.480;2023-04-15T06:22:27;6.60;1.00
21259;DHT22;10787;53.364;-1.480;2023-04-15T06:25:12;6.70;1.00
21259;DHT22;10787;53.364;-1.480;2023-04-15T06:27:58;6.80;1.00
21259;DHT22;10787;53.364;-1.480;2023-04-15T06:30:42;6.90;1.00
21259;DHT22;10787;53.364;-1.480;2023-04-15T06:33:27;6.90;1.00
21259;DHT22;10787;53.364;-1.480;2023-04-15T06:36:11;7.00;1.00
21259;DHT22;10787;53.364;-1.480;2023-04-15T06:38:55;7.00;1.00
21259;DHT22;10787;53.364;-1.480;2023-04-15T06:41:40;7.00;1.00
21259;DHT22;10787;53.364;-1.480;2023-04-15T06:44:25;7.10;1.00
21259;DHT22;10787;53.364;-1.480;2023-04-15T06:47:09;7.10;1.00
21259;DHT22;10787;53.364;-1.480;2023-04-15T06:49:55;7.10;1.00
21259;DHT22;10787;53.364;-1.480;2023-04-15T06:52:40;7.20;1.00
21259;DHT22;10787;53.364;-1.480;2023-04-15T06:55:24;7.30;1.00
21259;DHT22;10787;53.364;-1.480;2023-04-15T06:58:09;7.30;1.00
21259;DHT22;10787;53.364;-1.480;2023-04-15T07:00:53;7.40;1.00
21259;DHT22;10787;53.364;-1.480;2023-04-15T07:03:38;7.50;1.00
21259;DHT22;10787;53.364;-1.480;2023-04-15T07:06:22;7.50;1.00
21259;DHT22;10787;53.364;-1.480;2023-04-15T07:09:07;7.60;1.00
21259;DHT22;10787;53.364;-1.480;2023-04-15T07:11:51;7.70;1.00
21259;DHT22;10787;53.364;-1.480;2023-04-15T07:14:35;7.70;1.00
21259;DHT22;10787;53.364;-1.480;2023-04-15T07:17:20;7.80;1.00
21259;DHT22;10787;53.364;-1.480;2023-04-15T07:20:05;7.90;1.00
21259;DHT22;10787;53.364;-1.480;2023-04-15T07:22:50;8.00;1.00
21259;DHT22;10787;53.364;-1.480;2023-04-15T07:25:34;8.00;1.00
21259;DHT22;10787;53.364;-1.480;2023-04-15T07:28:19;8.20;1.00
21259;DHT22;10787;53.364;-1.480;2023-04-15T07:31:03;8.20;1.00
21259;DHT22;10787;53.364;-1.480;2023-04-15T07:33:47;8.30;1.00
21259;DHT22;10787;53.364;-1.480;2023-04-15T07:36:31;8.40;1.00
21259;DHT22;10787;53.364;-1.480;2023-04-15T07:39:18;8.40;1.00
21259;DHT22;10787;53.364;-1.480;2023-04-15T07:42:03;8.40;1.00
21259;DHT22;10787;53.364;-1.480;2023-04-15T07:44:47;8.50;1.00
21259;DHT22;10787;53.364;-1.480;2023-04-15T07:47:32;8.40;1.00
21259;DHT22;10787;53.364;-1.480;2023-04-15T07:50:16;8.50;1.00
21259;DHT22;10787;53.364;-1.480;2023-04-15T07:53:01;8.50;1.00
21259;DHT22;10787;53.364;-1.480;2023-04-15T07:55:46;8.60;1.00
21259;DHT22;10787;53.364;-1.480;2023-04-15T07:58:30;8.70;1.00
21259;DHT22;10787;53.364;-1.480;2023-04-15T08:01:14;8.70;1.00
21259;DHT22;10787;53.364;-1.480;2023-04-15T08:03:59;8.80;1.00
21259;DHT22;10787;53.364;-1.480;2023-04-15T08:06:43;8.80;1.00
21259;DHT22;10787;53.364;-1.480;2023-04-15T08:09:27;8.80;1.00
21259;DHT22;10787;53.364;-1.480;2023-04-15T08:12:12;8.90;1.00
21259;DHT22;10787;53.364;-1.480;2023-04-15T08:14:57;8.90;1.00
21259;DHT22;10787;53.364;-1.480;2023-04-15T08:17:41;9.00;1.00
21259;DHT22;10787;53.364;-1.480;2023-04-15T08:20:26;9.10;1.00
21259;DHT22;10787;53.364;-1.480;2023-04-15T08:23:10;9.20;1.00
21259;DHT22;10787;53.364;-1.480;2023-04-15T08:25:55;9.40;1.00
21259;DHT22;10787;53.364;-1.480;2023-04-15T08:28:40;9.40;1.00
21259;DHT22;10787;53.364;-1.480;2023-04-15T08:31:25;9.40;1.00
21259;DHT22;10787;53.364;-1.480;2023-04-15T08:34:11;9.40;1.00
21259;DHT22;10787;53.364;-1.480;2023-04-15T08:36:55;9.50;1.00
21259;DHT22;10787;53.364;-1.480;2023-04-15T08:39:40;9.50;1.00
21259;DHT22;10787;53.364;-1.480;2023-04-15T08:42:30;9.70;1.00
21259;DHT22;10787;53.364;-1.480;2023-04-15T08:45:18;9.80;1.00
21259;DHT22;10787;53.364;-1.480;2023-04-15T08:48:04;9.90;1.00
21259;DHT22;10787;53.364;-1.480;2023-04-15T08:50:50;10.10;1.00
21259;DHT22;10787;53.364;-1.480;2023-04-15T08:53:34;10.40;1.00
21259;DHT22;10787;53.364;-1.480;2023-04-15T08:56:23;10.60;1.00
21259;DHT22;10787;53.364;-1.480;2023-04-15T08:59:08;10.70;1.00
21259;DHT22;10787;53.364;-1.480;2023-04-15T09:01:54;10.80;1.00
21259;DHT22;10787;53.364;-1.480;2023-04-15T09:04:39;10.90;1.00
21259;DHT22;10787;53.364;-1.480;2023-04-15T09:07:24;10.90;1.00
21259;DHT22;10787;53.364;-1.480;2023-04-15T09:10:09;11.00;1.00
21259;DHT22;10787;53.364;-1.480;2023-04-15T09:12:54;11.00;1.00
21259;DHT22;10787;53.364;-1.480;2023-04-15T09:15:39;11.10;1.00
21259;DHT22;10787;53.364;-1.480;2023-04-15T09:18:31;11.20;1.00
21259;DHT22;10787;53.364;-1.480;2023-04-15T09:21:16;11.40;1.00
21259;DHT22;10787;53.364;-1.480;2023-04-15T09:24:01;11.70;1.00
21259;DHT22;10787;53.364;-1.480;2023-04-15T09:26:47;11.90;1.00
21259;DHT22;10787;53.364;-1.480;2023-04-15T09:29:35;12.00;1.00
21259;DHT22;10787;53.364;-1.480;2023-04-15T09:32:20;12.00;1.00
21259;DHT22;10787;53.364;-1.480;2023-04-15T09:35:12;12.20;1.00
21259;DHT22;10787;53.364;-1.480;2023-04-15T09:38:07;12.30;1.00
21259;DHT22;10787;53.364;-1.480;2023-04-15T09:40:52;12.30;1.00
21259;DHT22;10787;53.364;-1.480;2023-04-15T09:43:38;12.30;1.00
21259;DHT22;10787;53.364;-1.480;2023-04-15T09:46:40;12.50;1.00
21259;DHT22;10787;53.364;-1.480;2023-04-15T09:49:25;12.60;1.00
21259;DHT22;10787;53.364;-1.480;2023-04-15T09:52:12;12.90;1.00
21259;DHT22;10787;53.364;-1.480;2023-04-15T09:54:58;12.90;1.00
21259;DHT22;10787;53.364;-1.480;2023-04-15T09:57:42;13.00;1.00
21259;DHT22;10787;53.364;-1.480;2023-04-15T10:00:31;13.00;1.00
21259;DHT22;10787;53.364;-1.480;2023-04-15T10:03:21;12.90;1.00
21259;DHT22;10787;53.364;-1.480;2023-04-15T10:06:07;12.80;1.00
21259;DHT22;10787;53.364;-1.480;2023-04-15T10:08:53;12.70;1.00
21259;DHT22;10787;53.364;-1.480;2023-04-15T10:11:38;12.60;1.00
21259;DHT22;10787;53.364;-1.480;2023-04-15T10:14:24;12.50;1.00
21259;DHT22;10787;53.364;-1.480;2023-04-15T10:17:12;12.50;1.00
21259;DHT22;10787;53.364;-1.480;2023-04-15T10:20:02;12.60;1.00
21259;DHT22;10787;53.364;-1.480;2023-04-15T10:22:48;12.70;1.00
21259;DHT22;10787;53.364;-1.480;2023-04-15T10:25:33;13.00;1.00
21259;DHT22;10787;53.364;-1.480;2023-04-15T10:28:18;13.20;1.00
21259;DHT22;10787;53.364;-1.480;2023-04-15T10:31:04;13.50;1.00
21259;DHT22;10787;53.364;-1.480;2023-04-15T10:33:48;13.90;1.00
21259;DHT22;10787;53.364;-1.480;2023-04-15T10:36:34;14.10;1.00
21259;DHT22;10787;53.364;-1.480;2023-04-15T10:39:37;14.10;1.00
21259;DHT22;10787;53.364;-1.480;2023-04-15T10:42:33;14.10;1.00
21259;DHT22;10787;53.364;-1.480;2023-04-15T10:45:18;13.90;1.00
21259;DHT22;10787;53.364;-1.480;2023-04-15T10:48:05;13.80;1.00
21259;DHT22;10787;53.364;-1.480;2023-04-15T10:50:55;13.70;1.00
21259;DHT22;10787;53.364;-1.480;2023-04-15T10:53:41;13.70;1.00
21259;DHT22;10787;53.364;-1.480;2023-04-15T10:56:29;13.70;1.00
21259;DHT22;10787;53.364;-1.480;2023-04-15T10:59:15;14.00;1.00
21259;DHT22;10787;53.364;-1.480;2023-04-15T11:02:01;14.40;1.00
21259;DHT22;10787;53.364;-1.480;2023-04-15T11:04:57;14.30;1.00
21259;DHT22;10787;53.364;-1.480;2023-04-15T11:07:56;14.40;1.00
21259;DHT22;10787;53.364;-1.480;2023-04-15T11:13:26;14.30;1.00
21259;DHT22;10787;53.364;-1.480;2023-04-15T11:16:12;14.40;1.00
21259;DHT22;10787;53.364;-1.480;2023-04-15T11:18:56;14.50;1.00
21259;DHT22;10787;53.364;-1.480;2023-04-15T11:21:41;14.60;1.00
21259;DHT22;10787;53.364;-1.480;2023-04-15T11:24:25;14.70;1.00
21259;DHT22;10787;53.364;-1.480;2023-04-15T11:27:20;14.70;1.00
21259;DHT22;10787;53.364;-1.480;2023-04-15T11:30:24;14.80;1.00
21259;DHT22;10787;53.364;-1.480;2023-04-15T11:33:10;14.80;1.00
21259;DHT22;10787;53.364;-1.480;2023-04-15T11:35:55;14.90;1.00
21259;DHT22;10787;53.364;-1.480;2023-04-15T11:38:44;15.30;1.00
21259;DHT22;10787;53.364;-1.480;2023-04-15T11:41:29;15.60;1.00
21259;DHT22;10787;53.364;-1.480;2023-04-15T11:44:17;15.80;1.00
21259;DHT22;10787;53.364;-1.480;2023-04-15T11:47:23;16.20;1.00
21259;DHT22;10787;53.364;-1.480;2023-04-15T11:50:17;16.80;1.00
21259;DHT22;10787;53.364;-1.480;2023-04-15T11:53:03;17.20;1.00
21259;DHT22;10787;53.364;-1.480;2023-04-15T11:55:52;17.30;1.00
21259;DHT22;10787;53.364;-1.480;2023-04-15T11:58:37;17.10;1.00
21259;DHT22;10787;53.364;-1.480;2023-04-15T12:01:37;16.70;1.00
21259;DHT22;10787;53.364;-1.480;2023-04-15T12:04:26;16.20;1.00
21259;DHT22;10787;53.364;-1.480;2023-04-15T12:07:10;15.60;1.00
21259;DHT22;10787;53.364;-1.480;2023-04-15T12:09:56;15.10;1.00
21259;DHT22;10787;53.364;-1.480;2023-04-15T12:12:40;14.90;1.00
21259;DHT22;10787;53.364;-1.480;2023-04-15T12:15:25;14.70;1.00
21259;DHT22;10787;53.364;-1.480;2023-04-15T12:18:19;14.60;1.00
21259;DHT22;10787;53.364;-1.480;2023-04-15T12:21:11;14.50;1.00
21259;DHT22;10787;53.364;-1.480;2023-04-15T12:23:56;14.40;1.00
21259;DHT22;10787;53.364;-1.480;2023-04-15T12:26:45;14.40;1.00
21259;DHT22;10787;53.364;-1.480;2023-04-15T12:29:30;14.50;1.00
21259;DHT22;10787;53.364;-1.480;2023-04-15T12:32:16;14.60;1.00
21259;DHT22;10787;53.364;-1.480;2023-04-15T12:35:02;14.70;1.00
21259;DHT22;10787;53.364;-1.480;2023-04-15T12:37:48;14.80;1.00
21259;DHT22;10787;53.364;-1.480;2023-04-15T12:40:33;14.90;1.00
21259;DHT22;10787;53.364;-1.480;2023-04-15T12:43:17;15.10;1.00
21259;DHT22;10787;53.364;-1.480;2023-04-15T12:46:02;15.40;1.00
21259;DHT22;10787;53.364;-1.480;2023-04-15T12:48:48;15.80;1.00
21259;DHT22;10787;53.364;-1.480;2023-04-15T12:51:33;16.10;1.00
21259;DHT22;10787;53.364;-1.480;2023-04-15T12:54:17;16.50;1.00
21259;DHT22;10787;53.364;-1.480;2023-04-15T12:57:02;16.50;1.00
21259;DHT22;10787;53.364;-1.480;2023-04-15T12:59:47;16.70;1.00
21259;DHT22;10787;53.364;-1.480;2023-04-15T13:02:31;16.90;1.00
21259;DHT22;10787;53.364;-1.480;2023-04-15T13:05:15;16.80;1.00
21259;DHT22;10787;53.364;-1.480;2023-04-15T13:08:00;16.60;1.00
21259;DHT22;10787;53.364;-1.480;2023-04-15T13:10:45;16.30;1.00
21259;DHT22;10787;53.364;-1.480;2023-04-15T13:13:29;16.30;1.00
21259;DHT22;10787;53.364;-1.480;2023-04-15T13:16:34;16.20;1.00
21259;DHT22;10787;53.364;-1.480;2023-04-15T13:19:18;16.30;1.00
21259;DHT22;10787;53.364;-1.480;2023-04-15T13:22:02;16.30;1.00
21259;DHT22;10787;53.364;-1.480;2023-04-15T13:24:46;16.40;1.00
21259;DHT22;10787;53.364;-1.480;2023-04-15T13:27:31;16.40;1.00
21259;DHT22;10787;53.364;-1.480;2023-04-15T13:30:15;16.30;1.00
21259;DHT22;10787;53.364;-1.480;2023-04-15T13:33:00;16.20;1.00
21259;DHT22;10787;53.364;-1.480;2023-04-15T13:35:44;16.00;1.00
21259;DHT22;10787;53.364;-1.480;2023-04-15T13:38:29;15.90;1.00
21259;DHT22;10787;53.364;-1.480;2023-04-15T13:41:13;15.80;1.00
21259;DHT22;10787;53.364;-1.480;2023-04-15T13:43:57;15.60;1.00
21259;DHT22;10787;53.364;-1.480;2023-04-15T13:46:41;15.70;1.00
21259;DHT22;10787;53.364;-1.480;2023-04-15T13:49:26;15.80;1.00
21259;DHT22;10787;53.364;-1.480;2023-04-15T13:52:11;15.90;1.00
21259;DHT22;10787;53.364;-1.480;2023-04-15T13:54:55;16.10;1.00
21259;DHT22;10787;53.364;-1.480;2023-04-15T13:57:40;16.20;1.00
21259;DHT22;10787;53.364;-1.480;2023-04-15T14:00:24;16.30;1.00
21259;DHT22;10787;53.364;-1.480;2023-04-15T14:03:09;16.30;1.00
21259;DHT22;10787;53.364;-1.480;2023-04-15T14:05:53;16.40;1.00
21259;DHT22;10787;53.364;-1.480;2023-04-15T14:08:39;16.40;1.00
21259;DHT22;10787;53.364;-1.480;2023-04-15T14:11:23;16.30;1.00
21259;DHT22;10787;53.364;-1.480;2023-04-15T14:14:07;16.20;1.00
21259;DHT22;10787;53.364;-1.480;2023-04-15T14:16:52;15.90;1.00
21259;DHT22;10787;53.364;-1.480;2023-04-15T14:19:36;15.70;1.00
21259;DHT22;10787;53.364;-1.480;2023-04-15T14:22:20;15.60;1.00
21259;DHT22;10787;53.364;-1.480;2023-04-15T14:25:05;15.70;1.00
21259;DHT22;10787;53.364;-1.480;2023-04-15T14:27:49;15.70;1.00
21259;DHT22;10787;53.364;-1.480;2023-04-15T14:30:34;15.90;1.00
21259;DHT22;10787;53.364;-1.480;2023-04-15T14:33:18;15.90;1.00
21259;DHT22;10787;53.364;-1.480;2023-04-15T14:36:03;16.00;1.00
21259;DHT22;10787;53.364;-1.480;2023-04-15T14:38:48;16.00;1.00
21259;DHT22;10787;53.364;-1.480;2023-04-15T14:41:32;16.00;1.00
21259;DHT22;10787;53.364;-1.480;2023-04-15T14:44:16;16.00;1.00
21259;DHT22;10787;53.364;-1.480;2023-04-15T14:47:01;16.00;1.00
21259;DHT22;10787;53.364;-1.480;2023-04-15T14:49:46;16.00;1.00
21259;DHT22;10787;53.364;-1.480;2023-04-15T14:52:30;15.90;1.00
21259;DHT22;10787;53.364;-1.480;2023-04-15T14:55:21;16.00;1.00
21259;DHT22;10787;53.364;-1.480;2023-04-15T14:58:06;16.10;1.00
21259;DHT22;10787;53.364;-1.480;2023-04-15T15:00:51;16.10;1.00
21259;DHT22;10787;53.364;-1.480;2023-04-15T15:03:35;16.30;1.00
21259;DHT22;10787;53.364;-1.480;2023-04-15T15:06:20;16.80;1.00
21259;DHT22;10787;53.364;-1.480;2023-04-15T15:09:06;17.40;1.00
21259;DHT22;10787;53.364;-1.480;2023-04-15T15:11:50;17.80;1.00
21259;DHT22;10787;53.364;-1.480;2023-04-15T15:14:35;18.30;1.00
21259;DHT22;10787;53.364;-1.480;2023-04-15T15:17:19;18.70;1.00
21259;DHT22;10787;53.364;-1.480;2023-04-15T15:20:04;18.90;1.00
21259;DHT22;10787;53.364;-1.480;2023-04-15T15:22:48;18.80;1.00
21259;DHT22;10787;53.364;-1.480;2023-04-15T15:25:32;18.80;1.00
21259;DHT22;10787;53.364;-1.480;2023-04-15T15:28:16;18.80;1.00
21259;DHT22;10787;53.364;-1.480;2023-04-15T15:31:01;18.70;1.00
21259;DHT22;10787;53.364;-1.480;2023-04-15T15:33:46;18.50;1.00
21259;DHT22;10787;53.364;-1.480;2023-04-15T15:36:30;18.40;1.00
21259;DHT22;10787;53.364;-1.480;2023-04-15T15:39:17;18.20;1.00
21259;DHT22;10787;53.364;-1.480;2023-04-15T15:42:01;17.70;1.00
21259;DHT22;10787;53.364;-1.480;2023-04-15T15:44:46;17.40;1.00
21259;DHT22;10787;53.364;-1.480;2023-04-15T15:47:32;17.10;1.00
21259;DHT22;10787;53.364;-1.480;2023-04-15T15:50:16;16.90;1.00
21259;DHT22;10787;53.364;-1.480;2023-04-15T15:53:01;16.90;1.00
21259;DHT22;10787;53.364;-1.480;2023-04-15T15:55:48;16.90;1.00
21259;DHT22;10787;53.364;-1.480;2023-04-15T15:58:33;16.70;1.00
21259;DHT22;10787;53.364;-1.480;2023-04-15T16:01:17;16.40;1.00
21259;DHT22;10787;53.364;-1.480;2023-04-15T16:04:01;16.30;1.00
21259;DHT22;10787;53.364;-1.480;2023-04-15T16:06:45;16.20;1.00
21259;DHT22;10787;53.364;-1.480;2023-04-15T16:09:30;16.10;1.00
21259;DHT22;10787;53.364;-1.480;2023-04-15T16:12:15;16.00;1.00
21259;DHT22;10787;53.364;-1.480;2023-04-15T16:15:00;15.90;1.00
21259;DHT22;10787;53.364;-1.480;2023-04-15T16:17:44;15.90;1.00
21259;DHT22;10787;53.364;-1.480;2023-04-15T16:20:29;15.70;1.00
21259;DHT22;10787;53.364;-1.480;2023-04-15T16:23:15;15.50;1.00
21259;DHT22;10787;53.364;-1.480;2023-04-15T16:26:00;15.50;1.00
21259;DHT22;10787;53.364;-1.480;2023-04-15T16:28:44;15.30;1.00
21259;DHT22;10787;53.364;-1.480;2023-04-15T16:31:29;15.30;1.00
21259;DHT22;10787;53.364;-1.480;2023-04-15T16:34:14;15.10;1.00
21259;DHT22;10787;53.364;-1.480;2023-04-15T16:36:59;15.10;1.00
21259;DHT22;10787;53.364;-1.480;2023-04-15T16:39:43;15.00;1.00
21259;DHT22;10787;53.364;-1.480;2023-04-15T16:42:27;14.90;1.00
21259;DHT22;10787;53.364;-1.480;2023-04-15T16:45:12;14.90;1.00
21259;DHT22;10787;53.364;-1.480;2023-04-15T16:47:56;15.00;1.00
21259;DHT22;10787;53.364;-1.480;2023-04-15T16:50:40;14.90;1.00
21259;DHT22;10787;53.364;-1.480;2023-04-15T16:53:25;14.80;1.00
21259;DHT22;10787;53.364;-1.480;2023-04-15T16:56:09;14.80;1.00
21259;DHT22;10787;53.364;-1.480;2023-04-15T16:58:54;14.80;1.00
21259;DHT22;10787;53.364;-1.480;2023-04-15T17:01:39;14.80;1.00
21259;DHT22;10787;53.364;-1.480;2023-04-15T17:04:23;14.80;1.00
21259;DHT22;10787;53.364;-1.480;2023-04-15T17:07:07;14.80;1.00
21259;DHT22;10787;53.364;-1.480;2023-04-15T17:09:54;14.80;1.00
21259;DHT22;10787;53.364;-1.480;2023-04-15T17:12:38;14.60;1.00
21259;DHT22;10787;53.364;-1.480;2023-04-15T17:15:23;14.60;1.00
21259;DHT22;10787;53.364;-1.480;2023-04-15T17:18:07;14.50;1.00
21259;DHT22;10787;53.364;-1.480;2023-04-15T17:20:52;14.40;1.00
21259;DHT22;10787;53.364;-1.480;2023-04-15T17:23:46;14.40;1.00
21259;DHT22;10787;53.364;-1.480;2023-04-15T17:26:30;14.40;1.00
21259;DHT22;10787;53.364;-1.480;2023-04-15T17:29:15;15.10;1.00
21259;DHT22;10787;53.364;-1.480;2023-04-15T17:32:00;16.20;1.00